createdAt,value
2023-01-26T00:00:11.222Z,2.31
2023-01-26T00:02:39.729Z,2.13
2023-01-26T00:05:09.891Z,2.31
2023-01-26T00:07:39.521Z,2.44
2023-01-26T00:10:09.084Z,2.44
2023-01-26T00:12:37.674Z,2.42
2023-01-26T00:15:09.362Z,2.51
2023-01-26T00:17:38.278Z,2.57
2023-01-26T00:20:07.147Z,2.64
2023-01-26T00:22:35.090Z,2.85
2023-01-26T00:25:03.727Z,2.67
2023-01-26T00:27:33.718Z,2.59
2023-01-26T00:30:01.908Z,2.37
2023-01-26T00:32:31.267Z,2.51
2023-01-26T00:34:59.713Z,2.64
2023-01-26T00:37:28.787Z,2.58
2023-01-26T00:39:57.158Z,2.62
2023-01-26T00:42:25.948Z,2.74
2023-01-26T00:44:53.892Z,2.75
2023-01-26T00:47:21.770Z,2.83
2023-01-26T00:49:52.762Z,2.86
2023-01-26T00:52:20.989Z,2.81
2023-01-26T00:54:49.247Z,2.73
2023-01-26T00:57:17.215Z,2.79
2023-01-26T00:59:45.198Z,2.84
2023-01-26T01:02:13.302Z,2.87
2023-01-26T01:04:41.235Z,2.79
2023-01-26T01:07:12.080Z,2.63
2023-01-26T01:09:40.052Z,2.64
2023-01-26T01:12:08.383Z,2.63
2023-01-26T01:14:36.603Z,2.80
2023-01-26T01:17:04.651Z,2.90
2023-01-26T01:19:32.604Z,2.96
2023-01-26T01:22:00.689Z,2.95
2023-01-26T01:24:30.093Z,2.92
2023-01-26T01:26:57.969Z,2.83
2023-01-26T01:29:26.208Z,2.80
2023-01-26T01:31:54.830Z,2.77
2023-01-26T01:34:27.044Z,2.98
2023-01-26T01:36:56.144Z,2.98
2023-01-26T01:39:28.233Z,2.78
2023-01-26T01:42:01.717Z,2.71
2023-01-26T01:44:30.469Z,2.63
2023-01-26T01:47:03.283Z,2.81
2023-01-26T01:49:37.964Z,2.92
2023-01-26T01:52:12.953Z,2.75
2023-01-26T01:54:45.301Z,2.86
2023-01-26T01:57:19.832Z,2.90
2023-01-26T01:59:55.525Z,3.14
2023-01-26T02:02:25.021Z,3.28
2023-01-26T02:04:57.784Z,3.36
2023-01-26T02:07:27.536Z,3.49
2023-01-26T02:10:14.577Z,3.29
2023-01-26T02:12:46.817Z,3.44
2023-01-26T02:15:15.871Z,3.45
2023-01-26T02:17:45.060Z,3.31
2023-01-26T02:20:25.064Z,3.46
2023-01-26T02:23:05.258Z,3.38
2023-01-26T02:25:42.699Z,3.41
2023-01-26T02:28:13.085Z,3.50
2023-01-26T02:30:41.210Z,3.63
2023-01-26T02:33:15.359Z,3.58
2023-01-26T02:35:44.463Z,3.48
2023-01-26T02:38:14.035Z,3.32
2023-01-26T02:40:51.820Z,3.38
2023-01-26T02:43:21.455Z,3.58
2023-01-26T02:45:49.894Z,3.70
2023-01-26T02:48:38.038Z,3.75
2023-01-26T02:51:06.503Z,3.81
2023-01-26T02:53:35.469Z,3.71
2023-01-26T02:56:02.633Z,3.83
2023-01-26T02:58:32.094Z,3.87
2023-01-26T03:01:00.541Z,3.94
2023-01-26T03:03:41.585Z,4.10
2023-01-26T03:06:13.608Z,4.10
2023-01-26T03:08:42.171Z,3.91
2023-01-26T03:11:11.019Z,3.84
2023-01-26T03:13:40.255Z,3.83
2023-01-26T03:16:11.826Z,3.93
2023-01-26T03:18:57.287Z,3.81
2023-01-26T03:21:42.782Z,3.70
2023-01-26T03:24:40.569Z,3.79
2023-01-26T03:27:29.577Z,4.01
2023-01-26T03:30:06.300Z,3.97
2023-01-26T03:32:34.820Z,4.01
2023-01-26T03:35:07.181Z,4.02
2023-01-26T03:37:37.232Z,3.94
2023-01-26T03:40:32.963Z,4.02
2023-01-26T03:43:26.150Z,4.11
2023-01-26T03:46:13.531Z,4.12
2023-01-26T03:48:59.203Z,4.17
2023-01-26T03:51:44.797Z,4.16
2023-01-26T03:54:30.499Z,4.29
2023-01-26T03:56:59.082Z,4.34
2023-01-26T03:59:39.087Z,4.34
2023-01-26T04:02:37.280Z,4.29
2023-01-26T04:05:24.993Z,4.32
2023-01-26T04:08:20.649Z,4.37
2023-01-26T04:10:49.063Z,4.40
2023-01-26T04:13:34.372Z,4.38
2023-01-26T04:16:26.734Z,4.47
2023-01-26T04:19:13.935Z,4.57
2023-01-26T04:21:42.247Z,4.55
2023-01-26T04:24:22.686Z,4.42
2023-01-26T04:26:55.579Z,4.43
2023-01-26T04:29:27.753Z,4.55
2023-01-26T04:31:56.553Z,4.47
2023-01-26T04:34:26.440Z,4.50
2023-01-26T04:36:54.824Z,4.50
2023-01-26T04:39:25.837Z,4.59
2023-01-26T04:41:57.025Z,4.57
2023-01-26T04:44:26.362Z,4.65
2023-01-26T04:46:54.485Z,4.64
2023-01-26T04:49:23.406Z,4.52
2023-01-26T04:51:52.919Z,4.62
2023-01-26T04:54:21.146Z,4.78
2023-01-26T04:56:49.286Z,4.86
2023-01-26T04:59:17.295Z,4.94
2023-01-26T05:01:45.504Z,4.99
2023-01-26T05:04:13.874Z,5.09
2023-01-26T05:06:45.248Z,5.15
2023-01-26T05:09:14.665Z,5.19
2023-01-26T05:11:44.854Z,5.17
2023-01-26T05:14:31.193Z,5.22
2023-01-26T05:17:05.186Z,5.22
2023-01-26T05:20:02.718Z,5.23
2023-01-26T05:22:33.884Z,5.27
2023-01-26T05:25:26.900Z,5.31
2023-01-26T05:28:03.567Z,5.37
2023-01-26T05:30:32.080Z,5.47
2023-01-26T05:33:03.463Z,5.60
2023-01-26T05:35:32.661Z,5.73
2023-01-26T05:38:01.203Z,5.83
2023-01-26T05:40:33.439Z,5.92
2023-01-26T05:43:01.707Z,6.02
2023-01-26T05:45:59.699Z,6.08
2023-01-26T05:48:27.749Z,6.16
2023-01-26T05:50:57.765Z,6.21
2023-01-26T05:53:26.983Z,6.27
2023-01-26T05:55:57.283Z,6.30
2023-01-26T05:58:27.886Z,6.36
2023-01-26T06:00:57.131Z,6.41
2023-01-26T06:03:30.736Z,6.44
2023-01-26T06:05:58.883Z,6.47
2023-01-26T06:08:39.272Z,6.52
2023-01-26T06:11:27.124Z,6.55
2023-01-26T06:14:21.079Z,6.60
2023-01-26T06:16:49.500Z,6.64
2023-01-26T06:19:17.686Z,6.67
2023-01-26T06:21:50.932Z,6.71
2023-01-26T06:24:19.043Z,6.71
2023-01-26T06:26:49.848Z,6.76
2023-01-26T06:29:19.241Z,6.80
2023-01-26T06:31:47.197Z,6.80
2023-01-26T06:34:15.350Z,6.83
2023-01-26T06:36:44.421Z,6.85
2023-01-26T06:39:19.683Z,6.87
2023-01-26T06:41:50.010Z,6.86
2023-01-26T06:44:18.437Z,6.91
2023-01-26T06:46:47.122Z,6.93
2023-01-26T06:49:16.657Z,6.97
2023-01-26T06:51:48.828Z,6.96
2023-01-26T06:54:18.056Z,6.95
2023-01-26T06:57:04.556Z,6.96
2023-01-26T07:00:06.388Z,6.94
2023-01-26T07:02:57.376Z,6.96
2023-01-26T07:05:25.587Z,6.94
2023-01-26T07:07:54.075Z,6.97
2023-01-26T07:10:23.185Z,6.98
2023-01-26T07:12:53.355Z,6.98
2023-01-26T07:15:21.998Z,6.99
2023-01-26T07:17:50.493Z,6.99
2023-01-26T07:20:19.375Z,7.01
2023-01-26T07:22:47.729Z,7.04
2023-01-26T07:25:15.899Z,7.03
2023-01-26T07:27:43.893Z,7.05
2023-01-26T07:30:15.512Z,7.08
2023-01-26T07:32:43.712Z,7.10
2023-01-26T07:35:11.977Z,7.11
2023-01-26T07:37:40.301Z,7.09
2023-01-26T07:40:10.671Z,7.08
2023-01-26T07:42:38.967Z,7.11
2023-01-26T07:45:21.908Z,7.08
2023-01-26T07:47:50.447Z,7.07
2023-01-26T07:50:21.187Z,7.09
2023-01-26T07:52:49.774Z,7.09
2023-01-26T07:55:20.450Z,7.07
2023-01-26T07:57:49.409Z,7.07
2023-01-26T08:00:21.467Z,7.07
2023-01-26T08:02:51.180Z,7.08
2023-01-26T08:05:19.300Z,7.08
2023-01-26T08:07:47.411Z,7.10
2023-01-26T08:10:15.832Z,7.09
2023-01-26T08:12:43.844Z,7.09
2023-01-26T08:15:14.121Z,7.08
2023-01-26T08:17:43.759Z,7.10
2023-01-26T08:20:14.454Z,7.12
2023-01-26T08:22:42.670Z,7.11
2023-01-26T08:25:11.925Z,7.11
2023-01-26T08:27:40.224Z,7.12
2023-01-26T08:30:11.339Z,7.12
2023-01-26T08:32:39.960Z,7.13
2023-01-26T08:35:10.628Z,7.14
2023-01-26T08:37:38.851Z,7.17
2023-01-26T08:40:09.310Z,7.19
2023-01-26T08:42:37.500Z,7.21
2023-01-26T08:45:06.225Z,7.25
2023-01-26T08:47:34.461Z,7.27
2023-01-26T08:50:02.616Z,7.29
2023-01-26T08:52:32.887Z,7.31
2023-01-26T08:55:01.178Z,7.33
2023-01-26T08:57:29.546Z,7.35
2023-01-26T08:59:57.849Z,7.36
2023-01-26T09:02:26.252Z,7.37
2023-01-26T09:04:54.341Z,7.42
2023-01-26T09:07:22.461Z,7.43
2023-01-26T09:09:51.962Z,7.41
2023-01-26T09:12:19.868Z,7.42
2023-01-26T09:14:47.894Z,7.45
2023-01-26T09:17:16.076Z,7.42
2023-01-26T09:19:44.996Z,7.49
2023-01-26T09:22:13.111Z,7.54
2023-01-26T09:24:41.222Z,7.55
2023-01-26T09:27:10.547Z,7.55
2023-01-26T09:29:38.370Z,7.57
2023-01-26T09:32:06.943Z,7.60
2023-01-26T09:34:35.764Z,7.63
2023-01-26T09:37:04.137Z,7.67
2023-01-26T09:39:32.107Z,7.72
2023-01-26T09:42:13.480Z,7.71
2023-01-26T09:44:49.506Z,7.76
2023-01-26T09:47:27.135Z,7.80
2023-01-26T09:50:00.930Z,7.80
2023-01-26T09:52:34.383Z,7.82
2023-01-26T09:55:06.254Z,7.79
2023-01-26T09:57:39.306Z,7.83
2023-01-26T10:00:19.232Z,7.88
2023-01-26T10:02:58.032Z,7.93
2023-01-26T10:05:33.908Z,7.99
2023-01-26T10:08:13.784Z,8.00
2023-01-26T10:10:46.962Z,8.03
2023-01-26T10:13:17.729Z,8.08
2023-01-26T10:15:52.788Z,8.09
2023-01-26T10:18:25.133Z,8.09
2023-01-26T10:20:57.072Z,8.16
2023-01-26T10:23:29.056Z,8.14
2023-01-26T10:26:05.958Z,8.17
2023-01-26T10:28:36.720Z,8.25
2023-01-26T10:31:13.568Z,8.26
2023-01-26T10:33:49.866Z,8.30
2023-01-26T10:36:18.147Z,8.34
2023-01-26T10:38:47.102Z,8.35
2023-01-26T10:41:27.500Z,8.42
2023-01-26T10:43:57.893Z,8.43
2023-01-26T10:46:33.336Z,8.51
2023-01-26T10:49:04.452Z,8.56
2023-01-26T10:51:34.494Z,8.59
2023-01-26T10:54:20.356Z,8.71
2023-01-26T10:56:52.037Z,8.60
2023-01-26T10:59:30.837Z,8.60
2023-01-26T11:02:03.069Z,8.61
2023-01-26T11:04:32.019Z,8.58
2023-01-26T11:07:26.452Z,8.65
2023-01-26T11:09:54.970Z,8.79
2023-01-26T11:12:26.607Z,8.68
2023-01-26T11:15:04.223Z,8.71
2023-01-26T11:17:39.461Z,8.74
2023-01-26T11:20:27.928Z,8.84
2023-01-26T11:23:05.790Z,8.92
2023-01-26T11:25:41.904Z,9.01
2023-01-26T11:28:25.763Z,9.07
2023-01-26T11:31:01.739Z,9.16
2023-01-26T11:33:39.033Z,9.10
2023-01-26T11:36:17.096Z,9.02
2023-01-26T11:38:51.689Z,9.08
2023-01-26T11:41:38.300Z,9.18
2023-01-26T11:44:35.435Z,9.19
2023-01-26T11:47:16.014Z,9.06
2023-01-26T11:50:03.778Z,9.21
2023-01-26T11:52:43.220Z,9.17
2023-01-26T11:55:29.913Z,9.12
2023-01-26T11:58:15.230Z,9.14
2023-01-26T12:00:49.467Z,9.12
2023-01-26T12:03:26.306Z,9.07
2023-01-26T12:06:00.369Z,9.09
2023-01-26T12:08:38.305Z,9.06
2023-01-26T12:11:25.770Z,9.12
2023-01-26T12:14:13.893Z,9.08
2023-01-26T12:16:52.485Z,8.92
2023-01-26T12:19:37.814Z,8.96
2023-01-26T12:22:16.018Z,9.06
2023-01-26T12:25:16.164Z,9.09
2023-01-26T12:27:45.620Z,9.14
2023-01-26T12:30:28.554Z,9.13
2023-01-26T12:32:57.713Z,9.18
2023-01-26T12:35:40.362Z,9.10
2023-01-26T12:38:18.449Z,9.03
2023-01-26T12:40:58.902Z,9.00
2023-01-26T12:43:46.113Z,9.03
2023-01-26T12:46:15.816Z,9.06
2023-01-26T12:48:48.493Z,9.02
2023-01-26T12:51:24.259Z,9.05
2023-01-26T12:53:59.728Z,8.99
2023-01-26T12:56:34.176Z,9.05
2023-01-26T12:59:14.818Z,9.13
2023-01-26T13:02:10.276Z,9.15
2023-01-26T13:04:38.620Z,9.15
2023-01-26T13:07:29.039Z,9.18
2023-01-26T13:10:23.473Z,9.19
2023-01-26T13:12:54.600Z,9.16
2023-01-26T13:15:26.373Z,9.10
2023-01-26T13:17:57.388Z,9.06
2023-01-26T13:20:46.240Z,9.10
2023-01-26T13:23:40.657Z,9.03
2023-01-26T13:26:50.769Z,8.98
2023-01-26T13:29:35.642Z,9.04
2023-01-26T13:32:37.259Z,9.00
2023-01-26T13:35:14.934Z,9.02
2023-01-26T13:37:51.126Z,9.02
2023-01-26T13:40:24.847Z,8.98
2023-01-26T13:43:01.626Z,9.07
2023-01-26T13:45:36.722Z,9.08
2023-01-26T13:48:12.658Z,8.96
2023-01-26T13:50:42.343Z,9.01
2023-01-26T13:53:33.920Z,8.97
2023-01-26T13:56:05.314Z,8.95
2023-01-26T13:58:34.754Z,8.84
2023-01-26T14:01:08.301Z,8.92
2023-01-26T14:03:36.703Z,8.88
2023-01-26T14:06:10.878Z,8.89
2023-01-26T14:08:40.964Z,8.91
2023-01-26T14:11:19.328Z,9.03
2023-01-26T14:13:51.571Z,9.01
2023-01-26T14:16:27.755Z,9.07
2023-01-26T14:19:07.380Z,9.08
2023-01-26T14:21:47.513Z,9.06
2023-01-26T14:24:15.990Z,9.01
2023-01-26T14:26:44.594Z,8.99
2023-01-26T14:29:14.357Z,9.05
2023-01-26T14:31:44.611Z,9.08
2023-01-26T14:34:12.566Z,9.14
2023-01-26T14:36:40.654Z,9.06
2023-01-26T14:39:18.340Z,9.17
2023-01-26T14:41:47.575Z,9.05
2023-01-26T14:44:16.062Z,8.94
2023-01-26T14:46:57.727Z,8.98
2023-01-26T14:49:42.820Z,8.96
2023-01-26T14:52:22.427Z,8.95
2023-01-26T14:54:51.523Z,8.94
2023-01-26T14:57:23.807Z,8.98
2023-01-26T14:59:53.811Z,8.89
2023-01-26T15:02:26.045Z,8.96
2023-01-26T15:04:58.635Z,8.87
2023-01-26T15:07:40.002Z,8.93
2023-01-26T15:10:33.970Z,8.96
2023-01-26T15:13:07.006Z,8.89
2023-01-26T15:15:38.426Z,8.83
2023-01-26T15:18:19.363Z,8.87
2023-01-26T15:21:00.212Z,8.86
2023-01-26T15:23:31.180Z,8.80
2023-01-26T15:26:07.529Z,8.88
2023-01-26T15:28:36.594Z,8.88
2023-01-26T15:31:05.896Z,8.83
2023-01-26T15:33:58.887Z,8.94
2023-01-26T15:36:33.316Z,8.76
2023-01-26T15:39:05.973Z,8.75
2023-01-26T15:41:33.966Z,8.65
2023-01-26T15:44:02.101Z,8.64
2023-01-26T15:46:30.780Z,8.69
2023-01-26T15:49:00.118Z,8.70
2023-01-26T15:51:28.176Z,8.68
2023-01-26T15:53:56.676Z,8.57
2023-01-26T15:56:25.596Z,8.58
2023-01-26T15:58:54.111Z,8.56
2023-01-26T16:01:23.805Z,8.63
2023-01-26T16:03:52.478Z,8.68
2023-01-26T16:06:24.965Z,8.72
2023-01-26T16:08:53.871Z,8.72
2023-01-26T16:11:24.282Z,8.67
2023-01-26T16:14:02.925Z,8.63
2023-01-26T16:16:33.465Z,8.63
2023-01-26T16:19:01.584Z,8.63
2023-01-26T16:21:35.069Z,8.60
2023-01-26T16:24:04.836Z,8.59
2023-01-26T16:26:34.077Z,8.58
2023-01-26T16:29:02.257Z,8.59
2023-01-26T16:31:33.416Z,8.58
2023-01-26T16:34:02.299Z,8.60
2023-01-26T16:36:31.956Z,8.61
2023-01-26T16:39:00.391Z,8.55
2023-01-26T16:41:30.672Z,8.55
2023-01-26T16:44:00.737Z,8.55
2023-01-26T16:46:30.964Z,8.37
2023-01-26T16:48:59.935Z,8.40
2023-01-26T16:51:32.153Z,8.41
2023-01-26T16:54:00.571Z,8.43
2023-01-26T16:56:29.421Z,8.44
2023-01-26T16:58:57.525Z,8.44
2023-01-26T17:01:28.286Z,8.47
2023-01-26T17:03:57.059Z,8.46
2023-01-26T17:06:25.632Z,8.36
2023-01-26T17:08:55.120Z,8.34
2023-01-26T17:11:27.818Z,8.21
2023-01-26T17:13:57.130Z,8.30
2023-01-26T17:16:27.038Z,8.26
2023-01-26T17:18:55.043Z,8.32
2023-01-26T17:21:23.755Z,8.33
2023-01-26T17:23:53.190Z,8.34
2023-01-26T17:26:23.780Z,8.30
2023-01-26T17:28:55.632Z,8.32
2023-01-26T17:31:25.451Z,8.34
2023-01-26T17:33:53.736Z,8.30
2023-01-26T17:36:22.418Z,8.28
2023-01-26T17:38:51.144Z,8.31
2023-01-26T17:41:19.190Z,8.34
2023-01-26T17:43:49.144Z,8.23
2023-01-26T17:46:19.060Z,8.24
2023-01-26T17:48:47.907Z,8.24
2023-01-26T17:51:18.262Z,8.23
2023-01-26T17:53:49.584Z,8.21
2023-01-26T17:56:19.812Z,8.15
2023-01-26T17:58:51.601Z,8.16
2023-01-26T18:01:20.781Z,8.20
2023-01-26T18:03:49.507Z,8.15
2023-01-26T18:06:17.766Z,8.13
2023-01-26T18:08:46.199Z,8.10
2023-01-26T18:11:16.804Z,8.10
2023-01-26T18:13:45.566Z,8.05
2023-01-26T18:16:17.540Z,8.03
2023-01-26T18:18:46.181Z,8.05
2023-01-26T18:21:16.938Z,8.05
2023-01-26T18:23:47.254Z,8.05
2023-01-26T18:26:17.083Z,7.98
2023-01-26T18:28:46.738Z,7.99
2023-01-26T18:31:18.574Z,7.97
2023-01-26T18:33:47.077Z,7.99
2023-01-26T18:36:17.490Z,7.93
2023-01-26T18:38:50.547Z,8.01
2023-01-26T18:41:19.234Z,8.05
2023-01-26T18:43:48.775Z,8.05
2023-01-26T18:46:19.830Z,8.05
2023-01-26T18:48:48.275Z,8.05
2023-01-26T18:51:18.390Z,8.01
2023-01-26T18:53:46.628Z,7.98
2023-01-26T18:56:17.746Z,7.91
2023-01-26T18:58:46.221Z,7.89
2023-01-26T19:01:18.788Z,7.86
2023-01-26T19:03:54.089Z,7.89
2023-01-26T19:06:23.793Z,7.81
2023-01-26T19:08:58.487Z,7.86
2023-01-26T19:11:28.606Z,7.86
2023-01-26T19:13:56.720Z,7.86
2023-01-26T19:16:25.097Z,7.87
2023-01-26T19:18:55.612Z,7.85
2023-01-26T19:21:25.343Z,7.84
2023-01-26T19:23:55.624Z,7.84
2023-01-26T19:26:26.329Z,7.80
2023-01-26T19:28:55.011Z,7.78
2023-01-26T19:31:24.566Z,7.76
2023-01-26T19:33:55.400Z,7.72
2023-01-26T19:36:24.587Z,7.69
2023-01-26T19:38:52.916Z,7.72
2023-01-26T19:41:22.777Z,7.67
2023-01-26T19:43:51.328Z,7.66
2023-01-26T19:46:20.871Z,7.68
2023-01-26T19:48:48.895Z,7.69
2023-01-26T19:51:19.802Z,7.68
2023-01-26T19:53:50.022Z,7.69
2023-01-26T19:56:21.125Z,7.67
2023-01-26T19:58:51.200Z,7.61
2023-01-26T20:01:19.825Z,7.66
2023-01-26T20:03:51.604Z,7.66
2023-01-26T20:06:23.454Z,7.59
2023-01-26T20:08:52.280Z,7.63
2023-01-26T20:11:25.122Z,7.62
2023-01-26T20:13:55.841Z,7.64
2023-01-26T20:16:28.304Z,7.66
2023-01-26T20:18:57.268Z,7.66
2023-01-26T20:21:27.464Z,7.70
2023-01-26T20:23:56.264Z,7.73
2023-01-26T20:26:26.970Z,7.74
2023-01-26T20:28:58.144Z,7.74
2023-01-26T20:31:27.663Z,7.72
2023-01-26T20:33:56.300Z,7.70
2023-01-26T20:36:28.276Z,7.77
2023-01-26T20:38:57.346Z,7.80
2023-01-26T20:41:27.620Z,7.82
2023-01-26T20:44:00.385Z,7.79
2023-01-26T20:46:29.844Z,7.76
2023-01-26T20:48:59.431Z,7.71
2023-01-26T20:51:31.304Z,7.79
2023-01-26T20:53:59.519Z,7.82
2023-01-26T20:56:27.844Z,7.81
2023-01-26T20:58:57.700Z,7.82
2023-01-26T21:01:28.201Z,7.82
2023-01-26T21:03:56.571Z,7.88
2023-01-26T21:06:26.197Z,7.95
2023-01-26T21:08:58.252Z,7.91
2023-01-26T21:11:27.705Z,7.91
2023-01-26T21:13:57.074Z,7.95
2023-01-26T21:16:26.470Z,7.81
2023-01-26T21:18:54.987Z,7.81
2023-01-26T21:21:23.803Z,7.85
2023-01-26T21:23:52.824Z,7.88
2023-01-26T21:26:23.767Z,7.92
2023-01-26T21:28:52.656Z,7.92
2023-01-26T21:31:22.093Z,7.82
2023-01-26T21:33:51.998Z,7.90
2023-01-26T21:36:22.002Z,7.95
2023-01-26T21:38:52.156Z,7.94
2023-01-26T21:41:40.440Z,8.01
2023-01-26T21:44:11.669Z,8.06
2023-01-26T21:46:40.952Z,8.07
2023-01-26T21:49:09.427Z,8.11
2023-01-26T21:51:55.424Z,8.17
2023-01-26T21:54:23.669Z,8.05
2023-01-26T21:56:53.174Z,8.05
2023-01-26T21:59:20.153Z,8.07
2023-01-26T22:01:49.620Z,8.11
2023-01-26T22:04:19.574Z,7.98
2023-01-26T22:06:47.755Z,7.98
2023-01-26T22:09:17.957Z,7.98
2023-01-26T22:11:46.144Z,7.93
2023-01-26T22:14:20.743Z,7.80
2023-01-26T22:16:52.686Z,7.85
2023-01-26T22:19:22.633Z,7.86
2023-01-26T22:21:51.021Z,7.79
2023-01-26T22:24:19.082Z,7.68
2023-01-26T22:26:47.539Z,7.83
2023-01-26T22:29:16.881Z,7.86
2023-01-26T22:31:44.790Z,7.83
2023-01-26T22:34:13.392Z,7.76
2023-01-26T22:36:41.421Z,7.86
2023-01-26T22:39:10.201Z,7.92
2023-01-26T22:41:38.366Z,7.86
2023-01-26T22:44:06.489Z,7.83
2023-01-26T22:46:36.827Z,7.81
2023-01-26T22:49:05.982Z,7.88
2023-01-26T22:51:37.100Z,7.68
2023-01-26T22:54:06.510Z,7.77
2023-01-26T22:56:34.604Z,7.70
2023-01-26T22:59:02.895Z,7.65
2023-01-26T23:01:33.237Z,7.76
2023-01-26T23:04:03.316Z,7.59
2023-01-26T23:06:31.384Z,7.65
2023-01-26T23:09:01.134Z,7.61
2023-01-26T23:11:30.167Z,7.70
2023-01-26T23:14:00.432Z,7.71
2023-01-26T23:16:29.184Z,7.81
2023-01-26T23:18:59.805Z,7.85
2023-01-26T23:21:30.809Z,7.94
2023-01-26T23:23:59.316Z,7.96
2023-01-26T23:26:27.837Z,7.82
2023-01-26T23:28:55.771Z,7.84
2023-01-26T23:31:23.884Z,7.61
2023-01-26T23:33:52.300Z,7.67
2023-01-26T23:36:20.601Z,7.70
2023-01-26T23:38:50.871Z,7.74
2023-01-26T23:41:19.517Z,7.68
2023-01-26T23:43:47.581Z,7.69
2023-01-26T23:46:15.999Z,7.78
2023-01-26T23:48:44.056Z,7.82
2023-01-26T23:51:13.508Z,7.77
2023-01-26T23:53:42.018Z,7.83
2023-01-26T23:56:14.636Z,7.78
2023-01-26T23:58:42.900Z,7.74
